sensor_id;sensor_type;location;lat;lon;timestamp;pressure;altitude;pressure_sealevel;temperature;humidity
45731;BME280;31440;48.584;13.460;2023-04-03T00:01:45;97390.91;;;2.12;100.00
45731;BME280;31440;48.584;13.460;2023-04-03T00:04:50;97372.09;;;2.14;100.00
45731;BME280;31440;48.584;13.460;2023-04-03T00:07:55;97390.84;;;2.00;100.00
45731;BME280;31440;48.584;13.460;2023-04-03T00:11:00;97370.34;;;2.03;100.00
45731;BME280;31440;48.584;13.460;2023-04-03T00:14:05;97387.34;;;1.72;100.00
45731;BME280;31440;48.584;13.460;2023-04-03T00:17:10;97369.53;;;2.17;100.00
45731;BME280;31440;48.584;13.460;2023-04-03T00:20:15;97379.75;;;1.93;100.00
45731;BME280;31440;48.584;13.460;2023-04-03T00:23:19;97383.16;;;1.91;100.00
45731;BME280;31440;48.584;13.460;2023-04-03T00:26:24;97372.84;;;1.84;100.00
45731;BME280;31440;48.584;13.460;2023-04-03T00:29:29;97368.69;;;2.25;100.00
45731;BME280;31440;48.584;13.460;2023-04-03T00:32:34;97363.44;;;1.80;100.00
45731;BME280;31440;48.584;13.460;2023-04-03T00:35:39;97391.81;;;2.40;100.00
45731;BME280;31440;48.584;13.460;2023-04-03T00:38:44;97402.91;;;2.24;100.00
45731;BME280;31440;48.584;13.460;2023-04-03T00:41:49;97366.91;;;1.99;100.00
45731;BME280;31440;48.584;13.460;2023-04-03T00:48:04;97396.03;;;2.09;100.00
45731;BME280;31440;48.584;13.460;2023-04-03T00:51:13;97375.44;;;1.97;100.00
45731;BME280;31440;48.584;13.460;2023-04-03T00:54:19;97366.88;;;1.84;100.00
45731;BME280;31440;48.584;13.460;2023-04-03T00:57:24;97391.78;;;2.23;100.00
45731;BME280;31440;48.584;13.460;2023-04-03T01:00:29;97377.13;;;1.84;100.00
45731;BME280;31440;48.584;13.460;2023-04-03T01:03:33;97383.97;;;1.88;100.00
45731;BME280;31440;48.584;13.460;2023-04-03T01:06:40;97386.63;;;2.14;100.00
45731;BME280;31440;48.584;13.460;2023-04-03T01:09:47;97391.78;;;2.20;100.00
45731;BME280;31440;48.584;13.460;2023-04-03T01:12:53;97381.38;;;1.74;100.00
45731;BME280;31440;48.584;13.460;2023-04-03T01:16:01;97393.47;;;2.15;100.00
45731;BME280;31440;48.584;13.460;2023-04-03T01:19:13;97394.25;;;1.96;100.00
45731;BME280;31440;48.584;13.460;2023-04-03T01:22:25;97365.28;;;2.24;100.00
45731;BME280;31440;48.584;13.460;2023-04-03T01:25:34;97402.91;;;2.31;100.00
45731;BME280;31440;48.584;13.460;2023-04-03T01:28:40;97367.88;;;2.48;100.00
45731;BME280;31440;48.584;13.460;2023-04-03T01:31:53;97405.53;;;2.51;100.00
45731;BME280;31440;48.584;13.460;2023-04-03T01:34:59;97359.31;;;2.28;100.00
45731;BME280;31440;48.584;13.460;2023-04-03T01:38:03;97370.47;;;2.56;100.00
45731;BME280;31440;48.584;13.460;2023-04-03T01:41:09;97410.63;;;2.30;100.00
45731;BME280;31440;48.584;13.460;2023-04-03T01:44:14;97399.44;;;2.14;100.00
45731;BME280;31440;48.584;13.460;2023-04-03T01:47:19;97384.09;;;2.26;100.00
45731;BME280;31440;48.584;13.460;2023-04-03T01:50:24;97408.09;;;2.42;100.00
45731;BME280;31440;48.584;13.460;2023-04-03T01:53:29;97417.56;;;2.64;100.00
45731;BME280;31440;48.584;13.460;2023-04-03T01:56:33;97387.50;;;2.17;100.00
45731;BME280;31440;48.584;13.460;2023-04-03T01:59:38;97408.06;;;2.48;100.00
45731;BME280;31440;48.584;13.460;2023-04-03T02:02:43;97406.38;;;2.51;100.00
45731;BME280;31440;48.584;13.460;2023-04-03T02:05:49;97384.03;;;2.00;100.00
45731;BME280;31440;48.584;13.460;2023-04-03T02:08:54;97395.22;;;2.28;100.00
45731;BME280;31440;48.584;13.460;2023-04-03T02:11:59;97408.09;;;2.52;100.00
45731;BME280;31440;48.584;13.460;2023-04-03T02:15:04;97401.22;;;2.33;100.00
45731;BME280;31440;48.584;13.460;2023-04-03T02:18:09;97393.53;;;2.38;100.00
45731;BME280;31440;48.584;13.460;2023-04-03T02:21:14;97386.66;;;2.23;100.00
45731;BME280;31440;48.584;13.460;2023-04-03T02:24:19;97410.66;;;2.52;100.00
45731;BME280;31440;48.584;13.460;2023-04-03T02:27:23;97408.91;;;2.26;100.00
45731;BME280;31440;48.584;13.460;2023-04-03T02:30:28;97385.75;;;2.13;100.00
45731;BME280;31440;48.584;13.460;2023-04-03T02:33:33;97412.34;;;2.35;100.00
45731;BME280;31440;48.584;13.460;2023-04-03T02:36:43;97379.78;;;2.10;100.00
45731;BME280;31440;48.584;13.460;2023-04-03T02:39:50;97375.50;;;2.15;100.00
45731;BME280;31440;48.584;13.460;2023-04-03T02:42:54;97402.03;;;2.15;100.00
45731;BME280;31440;48.584;13.460;2023-04-03T02:46:01;97402.91;;;2.33;100.00
45731;BME280;31440;48.584;13.460;2023-04-03T02:49:05;97403.78;;;2.32;100.00
45731;BME280;31440;48.584;13.460;2023-04-03T02:52:10;97398.59;;;2.10;100.00
45731;BME280;31440;48.584;13.460;2023-04-03T02:55:15;97390.63;;;1.46;100.00
45731;BME280;31440;48.584;13.460;2023-04-03T02:58:21;97412.16;;;1.82;100.00
45731;BME280;31440;48.584;13.460;2023-04-03T03:01:27;97385.47;;;1.39;100.00
45731;BME280;31440;48.584;13.460;2023-04-03T03:04:36;97408.69;;;1.77;100.00
45731;BME280;31440;48.584;13.460;2023-04-03T03:07:41;97417.03;;;1.36;100.00
45731;BME280;31440;48.584;13.460;2023-04-03T03:10:45;97418.19;;;1.96;100.00
45731;BME280;31440;48.584;13.460;2023-04-03T03:13:50;97413.91;;;1.88;100.00
45731;BME280;31440;48.584;13.460;2023-04-03T03:16:54;97414.09;;;2.45;100.00
45731;BME280;31440;48.584;13.460;2023-04-03T03:19:59;97390.91;;;2.09;100.00
45731;BME280;31440;48.584;13.460;2023-04-03T03:23:04;97405.41;;;2.01;100.00
45731;BME280;31440;48.584;13.460;2023-04-03T03:26:10;97402.88;;;2.07;100.00
45731;BME280;31440;48.584;13.460;2023-04-03T03:29:15;97373.63;;;1.65;100.00
45731;BME280;31440;48.584;13.460;2023-04-03T03:32:21;97404.34;;;1.53;100.00
45731;BME280;31440;48.584;13.460;2023-04-03T03:35:25;97404.50;;;1.94;100.00
45731;BME280;31440;48.584;13.460;2023-04-03T03:38:30;97369.44;;;1.84;100.00
45731;BME280;31440;48.584;13.460;2023-04-03T03:41:36;97403.72;;;2.15;100.00
45731;BME280;31440;48.584;13.460;2023-04-03T03:44:42;97407.16;;;2.18;100.00
45731;BME280;31440;48.584;13.460;2023-04-03T03:47:47;97415.44;;;1.52;100.00
45731;BME280;31440;48.584;13.460;2023-04-03T03:50:52;97409.59;;;1.83;100.00
45731;BME280;31440;48.584;13.460;2023-04-03T03:54:00;97404.56;;;2.05;100.00
45731;BME280;31440;48.584;13.460;2023-04-03T03:57:05;97412.09;;;1.67;100.00
45731;BME280;31440;48.584;13.460;2023-04-03T04:00:10;97389.88;;;1.67;100.00
45731;BME280;31440;48.584;13.460;2023-04-03T04:03:25;97382.97;;;1.59;100.00
45731;BME280;31440;48.584;13.460;2023-04-03T04:06:29;97407.75;;;1.55;100.00
45731;BME280;31440;48.584;13.460;2023-04-03T04:09:38;97406.03;;;1.53;100.00
45731;BME280;31440;48.584;13.460;2023-04-03T04:12:42;97395.66;;;1.31;100.00
45731;BME280;31440;48.584;13.460;2023-04-03T04:15:47;97371.69;;;1.25;100.00
45731;BME280;31440;48.584;13.460;2023-04-03T04:18:53;97404.22;;;1.33;100.00
45731;BME280;31440;48.584;13.460;2023-04-03T04:21:58;97404.16;;;1.21;100.00
45731;BME280;31440;48.584;13.460;2023-04-03T04:25:03;97408.41;;;1.24;100.00
45731;BME280;31440;48.584;13.460;2023-04-03T04:28:08;97382.03;;;1.35;100.00
45731;BME280;31440;48.584;13.460;2023-04-03T04:31:14;97410.47;;;1.89;100.00
45731;BME280;31440;48.584;13.460;2023-04-03T04:34:18;97412.97;;;1.73;100.00
45731;BME280;31440;48.584;13.460;2023-04-03T04:37:24;97383.03;;;1.68;100.00
45731;BME280;31440;48.584;13.460;2023-04-03T04:40:29;97418.22;;;2.02;100.00
45731;BME280;31440;48.584;13.460;2023-04-03T04:43:36;97419.75;;;1.58;100.00
45731;BME280;31440;48.584;13.460;2023-04-03T04:46:41;97424.00;;;1.56;100.00
45731;BME280;31440;48.584;13.460;2023-04-03T04:49:46;97407.66;;;1.37;100.00
45731;BME280;31440;48.584;13.460;2023-04-03T04:52:52;97419.06;;;2.00;100.00
45731;BME280;31440;48.584;13.460;2023-04-03T04:55:57;97413.72;;;1.53;100.00
45731;BME280;31440;48.584;13.460;2023-04-03T04:59:02;97428.47;;;1.93;100.00
45731;BME280;31440;48.584;13.460;2023-04-03T05:02:07;97427.66;;;2.08;100.00
45731;BME280;31440;48.584;13.460;2023-04-03T05:05:13;97414.72;;;1.82;100.00
45731;BME280;31440;48.584;13.460;2023-04-03T05:08:18;97404.53;;;2.00;100.00
45731;BME280;31440;48.584;13.460;2023-04-03T05:11:23;97431.88;;;1.98;100.00
45731;BME280;31440;48.584;13.460;2023-04-03T05:14:29;97431.06;;;2.04;100.00
45731;BME280;31440;48.584;13.460;2023-04-03T05:17:39;97419.06;;;1.92;100.00
45731;BME280;31440;48.584;13.460;2023-04-03T05:20:50;97439.53;;;1.88;100.00
45731;BME280;31440;48.584;13.460;2023-04-03T05:23:56;97441.22;;;1.84;100.00
45731;BME280;31440;48.584;13.460;2023-04-03T05:27:02;97443.88;;;2.01;100.00
45731;BME280;31440;48.584;13.460;2023-04-03T05:30:08;97448.91;;;1.84;100.00
45731;BME280;31440;48.584;13.460;2023-04-03T05:33:14;97449.00;;;1.99;100.00
45731;BME280;31440;48.584;13.460;2023-04-03T05:36:26;97413.78;;;1.66;100.00
45731;BME280;31440;48.584;13.460;2023-04-03T05:39:37;97440.50;;;2.09;100.00
45731;BME280;31440;48.584;13.460;2023-04-03T05:42:43;97445.63;;;2.14;100.00
45731;BME280;31440;48.584;13.460;2023-04-03T05:45:50;97439.66;;;2.18;100.00
45731;BME280;31440;48.584;13.460;2023-04-03T05:48:56;97455.88;;;2.12;100.00
45731;BME280;31440;48.584;13.460;2023-04-03T05:52:04;97468.53;;;1.79;100.00
45731;BME280;31440;48.584;13.460;2023-04-03T05:55:09;97455.00;;;2.06;100.00
45731;BME280;31440;48.584;13.460;2023-04-03T05:58:14;97430.25;;;2.20;100.00
45731;BME280;31440;48.584;13.460;2023-04-03T06:01:21;97459.31;;;2.10;100.00
45731;BME280;31440;48.584;13.460;2023-04-03T06:04:26;97448.19;;;2.12;100.00
45731;BME280;31440;48.584;13.460;2023-04-03T06:07:31;97450.88;;;2.43;100.00
45731;BME280;31440;48.584;13.460;2023-04-03T06:10:36;97458.38;;;1.93;100.00
45731;BME280;31440;48.584;13.460;2023-04-03T06:13:41;97445.47;;;1.77;100.00
45731;BME280;31440;48.584;13.460;2023-04-03T06:16:45;97466.84;;;1.79;100.00
45731;BME280;31440;48.584;13.460;2023-04-03T06:19:51;97445.66;;;2.18;100.00
45731;BME280;31440;48.584;13.460;2023-04-03T06:22:56;97466.91;;;1.95;100.00
45731;BME280;31440;48.584;13.460;2023-04-03T06:26:00;97475.50;;;2.03;100.00
45731;BME280;31440;48.584;13.460;2023-04-03T06:29:05;97447.31;;;2.03;100.00
45731;BME280;31440;48.584;13.460;2023-04-03T06:32:10;97471.28;;;2.14;100.00
45731;BME280;31440;48.584;13.460;2023-04-03T06:35:14;97470.56;;;2.54;100.00
45731;BME280;31440;48.584;13.460;2023-04-03T06:38:19;97444.66;;;1.86;100.00
45731;BME280;31440;48.584;13.460;2023-04-03T06:41:24;97463.34;;;1.64;100.00
45731;BME280;31440;48.584;13.460;2023-04-03T06:44:30;97467.88;;;2.12;100.00
45731;BME280;31440;48.584;13.460;2023-04-03T06:47:35;97469.56;;;2.08;100.00
45731;BME280;31440;48.584;13.460;2023-04-03T06:50:39;97491.78;;;2.08;100.00
45731;BME280;31440;48.584;13.460;2023-04-03T06:53:45;97494.47;;;2.38;100.00
45731;BME280;31440;48.584;13.460;2023-04-03T06:56:50;97486.75;;;2.32;100.00
45731;BME280;31440;48.584;13.460;2023-04-03T06:59:55;97494.50;;;2.40;100.00
45731;BME280;31440;48.584;13.460;2023-04-03T07:03:00;97501.31;;;2.29;100.00
45731;BME280;31440;48.584;13.460;2023-04-03T07:06:05;97503.16;;;2.80;100.00
45731;BME280;31440;48.584;13.460;2023-04-03T07:09:11;97503.16;;;2.89;100.00
45731;BME280;31440;48.584;13.460;2023-04-03T07:12:16;97509.22;;;3.18;100.00
45731;BME280;31440;48.584;13.460;2023-04-03T07:15:21;97512.63;;;3.07;100.00
45731;BME280;31440;48.584;13.460;2023-04-03T07:18:26;97516.06;;;3.33;100.00
45731;BME280;31440;48.584;13.460;2023-04-03T07:21:30;97508.38;;;3.19;100.00
45731;BME280;31440;48.584;13.460;2023-04-03T07:24:35;97515.22;;;3.19;100.00
45731;BME280;31440;48.584;13.460;2023-04-03T07:27:41;97510.94;;;3.53;100.00
45731;BME280;31440;48.584;13.460;2023-04-03T07:30:47;97516.06;;;3.44;100.00
45731;BME280;31440;48.584;13.460;2023-04-03T07:33:52;97498.91;;;3.70;100.00
45731;BME280;31440;48.584;13.460;2023-04-03T07:36:57;97529.78;;;3.88;100.00
45731;BME280;31440;48.584;13.460;2023-04-03T07:40:02;97525.50;;;3.90;99.55
45731;BME280;31440;48.584;13.460;2023-04-03T07:43:08;97522.81;;;4.28;97.83
45731;BME280;31440;48.584;13.460;2023-04-03T07:46:12;97525.50;;;3.68;94.50
45731;BME280;31440;48.584;13.460;2023-04-03T07:49:17;97523.78;;;3.53;94.69
45731;BME280;31440;48.584;13.460;2023-04-03T07:52:27;97523.78;;;3.26;85.20
45731;BME280;31440;48.584;13.460;2023-04-03T07:55:32;97521.22;;;3.16;85.06
45731;BME280;31440;48.584;13.460;2023-04-03T07:58:38;97526.34;;;3.38;83.05
45731;BME280;31440;48.584;13.460;2023-04-03T08:01:43;97504.91;;;3.11;81.13
45731;BME280;31440;48.584;13.460;2023-04-03T08:04:47;97505.78;;;3.33;76.34
45731;BME280;31440;48.584;13.460;2023-04-03T08:07:52;97524.63;;;3.20;72.23
45731;BME280;31440;48.584;13.460;2023-04-03T08:10:58;97532.31;;;3.76;75.46
45731;BME280;31440;48.584;13.460;2023-04-03T08:14:03;97499.81;;;3.36;75.89
45731;BME280;31440;48.584;13.460;2023-04-03T08:17:08;97539.22;;;3.36;73.72
45731;BME280;31440;48.584;13.460;2023-04-03T08:20:16;97528.94;;;3.35;75.57
45731;BME280;31440;48.584;13.460;2023-04-03T08:23:20;97531.47;;;3.10;65.23
45731;BME280;31440;48.584;13.460;2023-04-03T08:26:25;97526.25;;;2.63;65.79
45731;BME280;31440;48.584;13.460;2023-04-03T08:29:31;97510.06;;;3.14;61.73
45731;BME280;31440;48.584;13.460;2023-04-03T08:32:37;97528.84;;;2.89;61.30
45731;BME280;31440;48.584;13.460;2023-04-03T08:35:41;97528.03;;;3.81;61.58
45731;BME280;31440;48.584;13.460;2023-04-03T08:38:48;97529.75;;;3.05;61.97
45731;BME280;31440;48.584;13.460;2023-04-03T08:41:55;97524.63;;;3.63;59.65
45731;BME280;31440;48.584;13.460;2023-04-03T08:45:10;97527.09;;;4.31;64.70
45731;BME280;31440;48.584;13.460;2023-04-03T08:48:19;97522.66;;;4.65;56.57
45731;BME280;31440;48.584;13.460;2023-04-03T08:51:26;97504.66;;;4.62;60.37
45731;BME280;31440;48.584;13.460;2023-04-03T08:54:50;97526.28;;;4.23;57.21
45731;BME280;31440;48.584;13.460;2023-04-03T08:58:05;97510.81;;;4.24;56.22
45731;BME280;31440;48.584;13.460;2023-04-03T09:01:20;97521.06;;;4.38;55.52
45731;BME280;31440;48.584;13.460;2023-04-03T09:04:26;97519.03;;;5.01;57.39
45731;BME280;31440;48.584;13.460;2023-04-03T09:07:41;97521.59;;;5.00;55.90
45731;BME280;31440;48.584;13.460;2023-04-03T09:10:47;97521.56;;;5.07;55.67
45731;BME280;31440;48.584;13.460;2023-04-03T09:14:02;97530.75;;;5.48;54.23
45731;BME280;31440;48.584;13.460;2023-04-03T09:20:51;97518.63;;;5.57;52.82
45731;BME280;31440;48.584;13.460;2023-04-03T09:23:59;97535.16;;;5.34;51.74
45731;BME280;31440;48.584;13.460;2023-04-03T09:27:08;97500.75;;;5.35;49.19
45731;BME280;31440;48.584;13.460;2023-04-03T09:30:17;97531.34;;;5.79;50.06
45731;BME280;31440;48.584;13.460;2023-04-03T09:33:22;97523.19;;;5.20;51.35
45731;BME280;31440;48.584;13.460;2023-04-03T09:36:39;97529.59;;;5.82;50.76
45731;BME280;31440;48.584;13.460;2023-04-03T09:39:52;97521.34;;;5.36;51.70
45731;BME280;31440;48.584;13.460;2023-04-03T09:43:19;97526.56;;;5.33;51.27
45731;BME280;31440;48.584;13.460;2023-04-03T09:46:32;97489.22;;;6.55;49.17
45731;BME280;31440;48.584;13.460;2023-04-03T09:49:39;97483.19;;;5.76;53.55
45731;BME280;31440;48.584;13.460;2023-04-03T09:52:46;97519.94;;;6.02;47.86
45731;BME280;31440;48.584;13.460;2023-04-03T09:55:51;97522.56;;;6.76;48.47
45731;BME280;31440;48.584;13.460;2023-04-03T10:08:34;97495.47;;;6.39;47.37
45731;BME280;31440;48.584;13.460;2023-04-03T10:15:01;97502.19;;;6.50;46.22
45731;BME280;31440;48.584;13.460;2023-04-03T10:22:04;97524.28;;;7.35;47.10
45731;BME280;31440;48.584;13.460;2023-04-03T10:25:26;97524.94;;;6.90;46.63
45731;BME280;31440;48.584;13.460;2023-04-03T10:29:01;97516.13;;;7.04;45.89
45731;BME280;31440;48.584;13.460;2023-04-03T10:39:19;97507.44;;;7.10;44.61
45731;BME280;31440;48.584;13.460;2023-04-03T10:56:42;97515.81;;;7.80;42.83
45731;BME280;31440;48.584;13.460;2023-04-03T10:59:50;97512.38;;;8.70;42.49
45731;BME280;31440;48.584;13.460;2023-04-03T11:03:00;97503.59;;;8.35;43.20
45731;BME280;31440;48.584;13.460;2023-04-03T11:06:10;97500.81;;;8.85;43.92
45731;BME280;31440;48.584;13.460;2023-04-03T11:09:27;97498.00;;;8.55;42.80
45731;BME280;31440;48.584;13.460;2023-04-03T11:12:44;97499.28;;;9.52;41.18
45731;BME280;31440;48.584;13.460;2023-04-03T11:15:53;97489.28;;;8.13;42.39
45731;BME280;31440;48.584;13.460;2023-04-03T11:19:19;97507.22;;;8.68;40.89
45731;BME280;31440;48.584;13.460;2023-04-03T11:22:43;97487.25;;;9.83;41.14
45731;BME280;31440;48.584;13.460;2023-04-03T11:25:51;97471.88;;;9.03;40.34
45731;BME280;31440;48.584;13.460;2023-04-03T11:29:02;97496.75;;;10.49;39.87
45731;BME280;31440;48.584;13.460;2023-04-03T11:32:25;97499.50;;;10.43;40.06
45731;BME280;31440;48.584;13.460;2023-04-03T11:35:33;97498.03;;;8.07;41.80
45731;BME280;31440;48.584;13.460;2023-04-03T11:38:42;97503.53;;;6.79;43.36
45731;BME280;31440;48.584;13.460;2023-04-03T11:41:48;97475.53;;;5.70;45.39
45731;BME280;31440;48.584;13.460;2023-04-03T11:51:40;97517.91;;;6.27;44.94
45731;BME280;31440;48.584;13.460;2023-04-03T11:54:47;97513.03;;;4.99;44.93
45731;BME280;31440;48.584;13.460;2023-04-03T12:01:10;97483.88;;;6.68;46.50
45731;BME280;31440;48.584;13.460;2023-04-03T12:04:17;97511.31;;;8.37;42.57
45731;BME280;31440;48.584;13.460;2023-04-03T12:07:22;97517.75;;;8.61;42.75
45731;BME280;31440;48.584;13.460;2023-04-03T12:10:28;97482.69;;;8.85;44.00
45731;BME280;31440;48.584;13.460;2023-04-03T12:16:59;97496.84;;;6.65;43.00
45731;BME280;31440;48.584;13.460;2023-04-03T12:27:16;97501.63;;;6.94;42.25
45731;BME280;31440;48.584;13.460;2023-04-03T12:30:25;97504.09;;;6.31;42.36
45731;BME280;31440;48.584;13.460;2023-04-03T12:37:17;97501.06;;;5.96;45.15
45731;BME280;31440;48.584;13.460;2023-04-03T12:44:20;97496.97;;;7.16;43.85
45731;BME280;31440;48.584;13.460;2023-04-03T12:47:31;97497.38;;;9.23;41.52
45731;BME280;31440;48.584;13.460;2023-04-03T12:50:40;97489.09;;;7.24;43.60
45731;BME280;31440;48.584;13.460;2023-04-03T12:53:46;97462.47;;;7.17;43.16
45731;BME280;31440;48.584;13.460;2023-04-03T12:56:51;97483.69;;;6.81;41.51
45731;BME280;31440;48.584;13.460;2023-04-03T12:59:56;97482.81;;;5.21;45.23
45731;BME280;31440;48.584;13.460;2023-04-03T13:03:02;97494.41;;;5.72;43.35
45731;BME280;31440;48.584;13.460;2023-04-03T13:06:19;97486.59;;;5.80;45.05
45731;BME280;31440;48.584;13.460;2023-04-03T13:09:28;97489.72;;;6.11;44.78
45731;BME280;31440;48.584;13.460;2023-04-03T13:12:34;97493.47;;;5.82;45.35
45731;BME280;31440;48.584;13.460;2023-04-03T13:15:42;97501.91;;;5.95;48.25
45731;BME280;31440;48.584;13.460;2023-04-03T13:18:51;97497.50;;;5.08;46.96
45731;BME280;31440;48.584;13.460;2023-04-03T13:22:05;97483.91;;;4.86;45.92
45731;BME280;31440;48.584;13.460;2023-04-03T13:25:14;97479.69;;;4.78;47.39
45731;BME280;31440;48.584;13.460;2023-04-03T13:28:22;97452.81;;;6.01;44.82
45731;BME280;31440;48.584;13.460;2023-04-03T13:31:38;97469.78;;;7.46;41.25
45731;BME280;31440;48.584;13.460;2023-04-03T13:34:45;97474.94;;;8.41;40.78
45731;BME280;31440;48.584;13.460;2023-04-03T13:38:03;97487.59;;;8.97;40.15
45731;BME280;31440;48.584;13.460;2023-04-03T13:41:32;97498.09;;;6.34;43.97
45731;BME280;31440;48.584;13.460;2023-04-03T13:44:37;97460.25;;;8.42;40.80
45731;BME280;31440;48.584;13.460;2023-04-03T13:47:45;97487.91;;;7.46;40.60
45731;BME280;31440;48.584;13.460;2023-04-03T13:51:00;97485.31;;;7.46;39.95
45731;BME280;31440;48.584;13.460;2023-04-03T13:54:19;97460.38;;;7.40;40.84
45731;BME280;31440;48.584;13.460;2023-04-03T13:57:24;97479.41;;;8.35;41.82
45731;BME280;31440;48.584;13.460;2023-04-03T14:00:37;97494.91;;;7.38;42.15
45731;BME280;31440;48.584;13.460;2023-04-03T14:06:56;97495.94;;;6.69;42.61
45731;BME280;31440;48.584;13.460;2023-04-03T14:10:01;97499.44;;;6.64;41.19
45731;BME280;31440;48.584;13.460;2023-04-03T14:13:06;97478.28;;;6.36;41.70
45731;BME280;31440;48.584;13.460;2023-04-03T14:16:13;97470.56;;;5.49;41.44
45731;BME280;31440;48.584;13.460;2023-04-03T14:19:23;97460.47;;;6.07;41.34
45731;BME280;31440;48.584;13.460;2023-04-03T14:22:30;97477.69;;;7.37;40.88
45731;BME280;31440;48.584;13.460;2023-04-03T14:25:36;97456.56;;;8.09;39.32
45731;BME280;31440;48.584;13.460;2023-04-03T14:28:42;97483.53;;;6.93;41.66
45731;BME280;31440;48.584;13.460;2023-04-03T14:31:50;97491.44;;;6.81;40.80
45731;BME280;31440;48.584;13.460;2023-04-03T14:35:07;97488.78;;;5.24;41.62
45731;BME280;31440;48.584;13.460;2023-04-03T14:41:27;97497.19;;;5.51;42.08
45731;BME280;31440;48.584;13.460;2023-04-03T14:44:32;97478.53;;;5.18;42.84
45731;BME280;31440;48.584;13.460;2023-04-03T14:47:47;97478.72;;;4.91;42.92
45731;BME280;31440;48.584;13.460;2023-04-03T14:50:53;97501.91;;;4.95;42.16
45731;BME280;31440;48.584;13.460;2023-04-03T14:54:14;97485.81;;;4.48;44.34
45731;BME280;31440;48.584;13.460;2023-04-03T14:57:23;97503.63;;;4.93;44.96
45731;BME280;31440;48.584;13.460;2023-04-03T15:00:28;97486.56;;;7.21;40.32
45731;BME280;31440;48.584;13.460;2023-04-03T15:03:32;97477.09;;;5.83;40.69
45731;BME280;31440;48.584;13.460;2023-04-03T15:06:37;97475.31;;;4.89;41.85
45731;BME280;31440;48.584;13.460;2023-04-03T15:09:42;97497.06;;;4.32;43.14
45731;BME280;31440;48.584;13.460;2023-04-03T15:12:47;97485.97;;;4.10;44.74
45731;BME280;31440;48.584;13.460;2023-04-03T15:15:52;97504.91;;;3.89;45.58
45731;BME280;31440;48.584;13.460;2023-04-03T15:18:57;97503.97;;;4.16;45.63
45731;BME280;31440;48.584;13.460;2023-04-03T15:22:02;97490.34;;;3.64;46.59
45731;BME280;31440;48.584;13.460;2023-04-03T15:25:07;97519.34;;;4.45;44.89
45731;BME280;31440;48.584;13.460;2023-04-03T15:28:33;97516.84;;;4.17;45.56
45731;BME280;31440;48.584;13.460;2023-04-03T15:31:38;97510.91;;;3.85;46.84
45731;BME280;31440;48.584;13.460;2023-04-03T15:34:43;97483.44;;;4.07;46.41
45731;BME280;31440;48.584;13.460;2023-04-03T15:37:47;97517.47;;;4.73;45.56
45731;BME280;31440;48.584;13.460;2023-04-03T15:40:53;97485.09;;;4.26;44.76
45731;BME280;31440;48.584;13.460;2023-04-03T15:43:59;97514.84;;;4.83;44.37
45731;BME280;31440;48.584;13.460;2023-04-03T15:47:04;97517.38;;;4.91;43.85
45731;BME280;31440;48.584;13.460;2023-04-03T15:50:09;97483.13;;;5.85;42.08
45731;BME280;31440;48.584;13.460;2023-04-03T15:53:14;97483.34;;;5.59;42.51
45731;BME280;31440;48.584;13.460;2023-04-03T15:56:18;97496.88;;;4.76;43.63
45731;BME280;31440;48.584;13.460;2023-04-03T15:59:23;97499.63;;;4.36;43.36
45731;BME280;31440;48.584;13.460;2023-04-03T16:02:28;97495.25;;;4.50;44.50
45731;BME280;31440;48.584;13.460;2023-04-03T16:05:35;97526.34;;;3.57;45.37
45731;BME280;31440;48.584;13.460;2023-04-03T16:08:42;97537.47;;;4.08;46.39
45731;BME280;31440;48.584;13.460;2023-04-03T16:11:47;97529.78;;;3.37;48.96
45731;BME280;31440;48.584;13.460;2023-04-03T16:14:51;97501.47;;;3.56;45.45
45731;BME280;31440;48.584;13.460;2023-04-03T16:17:57;97528.09;;;3.37;45.95
45731;BME280;31440;48.584;13.460;2023-04-03T16:21:03;97504.84;;;2.61;48.74
45731;BME280;31440;48.584;13.460;2023-04-03T16:24:08;97493.69;;;2.67;47.93
45731;BME280;31440;48.584;13.460;2023-04-03T16:27:13;97516.88;;;3.03;46.96
45731;BME280;31440;48.584;13.460;2023-04-03T16:30:18;97539.06;;;2.62;47.73
45731;BME280;31440;48.584;13.460;2023-04-03T16:33:23;97497.94;;;2.46;48.62
45731;BME280;31440;48.584;13.460;2023-04-03T16:36:28;97529.59;;;2.53;48.11
45731;BME280;31440;48.584;13.460;2023-04-03T16:39:32;97527.13;;;2.76;49.12
45731;BME280;31440;48.584;13.460;2023-04-03T16:42:37;97535.69;;;2.78;48.71
45731;BME280;31440;48.584;13.460;2023-04-03T16:45:42;97527.88;;;2.41;48.50
45731;BME280;31440;48.584;13.460;2023-04-03T16:48:46;97529.59;;;2.44;49.56
45731;BME280;31440;48.584;13.460;2023-04-03T16:51:51;97537.41;;;2.77;49.11
45731;BME280;31440;48.584;13.460;2023-04-03T16:54:55;97541.63;;;2.66;49.31
45731;BME280;31440;48.584;13.460;2023-04-03T16:58:02;97549.78;;;1.84;51.07
45731;BME280;31440;48.584;13.460;2023-04-03T17:01:16;97551.66;;;2.13;53.78
45731;BME280;31440;48.584;13.460;2023-04-03T17:04:22;97518.22;;;1.93;53.71
45731;BME280;31440;48.584;13.460;2023-04-03T17:07:26;97522.59;;;2.09;51.72
45731;BME280;31440;48.584;13.460;2023-04-03T17:10:31;97549.66;;;1.66;52.73
45731;BME280;31440;48.584;13.460;2023-04-03T17:13:37;97551.44;;;1.78;53.60
45731;BME280;31440;48.584;13.460;2023-04-03T17:16:42;97542.69;;;1.47;53.95
45731;BME280;31440;48.584;13.460;2023-04-03T17:19:47;97549.59;;;1.56;53.04
45731;BME280;31440;48.584;13.460;2023-04-03T17:22:52;97535.81;;;1.44;55.54
45731;BME280;31440;48.584;13.460;2023-04-03T17:25:57;97576.63;;;1.25;54.55
45731;BME280;31440;48.584;13.460;2023-04-03T17:29:02;97558.75;;;1.29;54.82
45731;BME280;31440;48.584;13.460;2023-04-03T17:32:07;97577.63;;;1.37;55.53
45731;BME280;31440;48.584;13.460;2023-04-03T17:35:12;97581.75;;;1.25;55.47
45731;BME280;31440;48.584;13.460;2023-04-03T17:38:17;97557.84;;;1.24;55.22
45731;BME280;31440;48.584;13.460;2023-04-03T17:41:21;97584.03;;;0.96;57.78
45731;BME280;31440;48.584;13.460;2023-04-03T17:44:26;97572.72;;;0.75;57.04